Time;durP1;ratioP1;P1;durP2;ratioP2;P2;SDS_P1;SDS_P2;PMS_P1;PMS_P2;Temp;Humidity;BMP_temperature;BMP_pressure;BME280_temperature;BME280_humidity;BME280_pressure;Samples;Min_cycle;Max_cycle;Signal;HPM_P1;HPM_P2
2023/12/10 00:01:58;;;;;;;10.05;6.07;;;6.10;99.90;;;;;;4728957;30;20084;-56
2023/12/10 00:04:26;;;;;;;10.25;5.88;;;6.10;99.90;;;;;;4730560;30;20049;-50
2023/12/10 00:06:55;;;;;;;8.52;5.28;;;6.10;99.90;;;;;;4729282;30;20067;-53
2023/12/10 00:09:23;;;;;;;8.60;5.65;;;6.20;99.90;;;;;;4717571;30;20052;-55
2023/12/10 00:11:50;;;;;;;7.82;4.65;;;6.30;99.90;;;;;;4730598;30;20063;-51
2023/12/10 00:14:17;;;;;;;8.25;4.53;;;6.30;99.90;;;;;;4720108;30;20047;-50
2023/12/10 00:16:44;;;;;;;7.95;4.65;;;6.40;99.90;;;;;;4716040;30;20045;-56
2023/12/10 00:19:11;;;;;;;8.75;4.40;;;6.50;99.90;;;;;;4726026;30;20052;-54
2023/12/10 00:21:39;;;;;;;7.43;4.18;;;6.50;99.90;;;;;;4731998;30;20400;-52
2023/12/10 00:24:06;;;;;;;7.05;3.90;;;6.60;99.90;;;;;;4730592;30;20060;-50
2023/12/10 00:26:34;;;;;;;5.03;2.80;;;6.70;99.90;;;;;;4732168;30;20048;-56
2023/12/10 00:29:01;;;;;;;5.45;2.83;;;6.80;99.90;;;;;;4721984;30;20067;-57
2023/12/10 00:31:28;;;;;;;4.70;2.58;;;6.80;99.90;;;;;;4726120;30;20049;-52
2023/12/10 00:33:55;;;;;;;4.45;2.47;;;6.90;99.90;;;;;;4731156;30;20051;-56
2023/12/10 00:36:22;;;;;;;4.10;2.28;;;6.90;99.90;;;;;;4713467;30;20055;-53
2023/12/10 00:38:50;;;;;;;3.90;2.40;;;6.90;99.90;;;;;;4730092;30;20049;-55
2023/12/10 00:41:17;;;;;;;4.53;1.75;;;7.00;99.90;;;;;;4731396;30;20067;-55
2023/12/10 00:43:44;;;;;;;3.45;1.73;;;7.10;99.90;;;;;;4713900;30;20111;-56
2023/12/10 00:46:11;;;;;;;4.95;1.88;;;7.10;99.90;;;;;;4727236;30;20060;-50
2023/12/10 00:48:38;;;;;;;3.97;1.50;;;7.20;99.90;;;;;;4731704;30;20103;-52
2023/12/10 00:51:05;;;;;;;7.50;2.42;;;7.30;99.90;;;;;;4730097;30;20057;-50
2023/12/10 00:53:32;;;;;;;6.57;1.50;;;7.50;99.90;;;;;;4706199;30;20504;-55
2023/12/10 00:56:00;;;;;;;5.82;1.63;;;7.70;99.90;;;;;;4730467;30;20044;-56
2023/12/10 00:58:27;;;;;;;7.07;2.05;;;7.80;99.90;;;;;;4734652;30;20052;-53
2023/12/10 01:00:54;;;;;;;6.18;1.73;;;7.80;99.90;;;;;;4730570;30;20176;-57
2023/12/10 01:03:21;;;;;;;8.82;1.75;;;8.00;99.90;;;;;;4732224;30;20132;-52
2023/12/10 01:05:49;;;;;;;7.28;1.98;;;8.00;99.90;;;;;;4717998;30;20159;-56
2023/12/10 01:08:17;;;;;;;6.25;1.83;;;8.00;99.90;;;;;;4731431;30;20159;-51
2023/12/10 01:10:44;;;;;;;11.13;2.15;;;8.10;99.90;;;;;;4730263;30;20052;-51
2023/12/10 01:13:11;;;;;;;12.88;2.10;;;8.20;99.90;;;;;;4730987;30;20064;-51
2023/12/10 01:15:38;;;;;;;13.93;2.38;;;8.20;99.90;;;;;;4716334;30;20051;-49
2023/12/10 01:18:05;;;;;;;8.77;2.28;;;8.20;99.90;;;;;;4730837;30;20152;-57
2023/12/10 01:20:33;;;;;;;16.77;2.40;;;8.20;99.90;;;;;;4731672;30;20056;-51
2023/12/10 01:23:04;;;;;;;10.18;2.25;;;8.20;99.90;;;;;;4730284;30;20053;-59
2023/12/10 01:25:31;;;;;;;9.10;2.22;;;8.20;99.90;;;;;;4731490;30;20079;-49
2023/12/10 01:27:58;;;;;;;11.80;3.05;;;8.20;99.90;;;;;;4731471;30;20063;-52
2023/12/10 01:30:25;;;;;;;11.40;2.72;;;8.10;99.90;;;;;;4711842;30;20115;-54
2023/12/10 01:32:57;;;;;;;14.85;2.38;;;8.20;99.90;;;;;;4729053;30;20049;-54
2023/12/10 01:35:25;;;;;;;16.73;3.05;;;8.20;99.90;;;;;;4730342;30;20080;-49
2023/12/10 01:37:53;;;;;;;8.48;2.60;;;8.20;99.90;;;;;;4715267;30;20503;-54
2023/12/10 01:40:21;;;;;;;5.90;2.00;;;8.30;99.90;;;;;;4730086;30;20139;-50
2023/12/10 01:42:49;;;;;;;15.15;2.85;;;8.30;99.90;;;;;;4728780;30;20049;-53
2023/12/10 01:45:19;;;;;;;12.10;2.83;;;8.20;99.90;;;;;;4725001;30;20084;-52
2023/12/10 01:47:49;;;;;;;8.85;2.70;;;8.30;99.90;;;;;;4715001;30;20121;-57
2023/12/10 01:50:18;;;;;;;8.63;2.58;;;8.20;99.90;;;;;;4729994;30;20080;-54
2023/12/10 01:52:47;;;;;;;12.07;2.45;;;8.30;99.90;;;;;;4729698;30;20462;-53
2023/12/10 01:55:15;;;;;;;10.32;2.78;;;8.30;99.90;;;;;;4730173;30;20438;-54
2023/12/10 01:57:42;;;;;;;21.90;3.47;;;8.20;99.90;;;;;;4704443;30;20389;-56
2023/12/10 02:00:10;;;;;;;15.43;2.90;;;8.20;99.90;;;;;;4714285;30;20079;-51
2023/12/10 02:02:42;;;;;;;14.73;2.75;;;8.30;99.90;;;;;;4729807;30;20068;-56
2023/12/10 02:05:10;;;;;;;13.32;3.05;;;8.30;99.90;;;;;;4716116;30;20064;-51
2023/12/10 02:07:40;;;;;;;18.48;3.38;;;8.30;99.90;;;;;;4715217;30;20063;-52
2023/12/10 02:10:09;;;;;;;15.18;3.22;;;8.30;99.90;;;;;;4729222;30;20060;-49
2023/12/10 02:12:37;;;;;;;14.90;3.17;;;8.30;99.90;;;;;;4730456;30;20061;-55
2023/12/10 02:15:18;;;;;;;16.05;3.22;;;8.30;99.90;;;;;;4730164;30;20059;-52
2023/12/10 02:17:47;;;;;;;18.90;3.63;;;8.30;99.90;;;;;;4722897;30;20053;-54
2023/12/10 02:20:15;;;;;;;15.45;2.95;;;8.30;99.90;;;;;;4730248;30;20072;-56
2023/12/10 02:22:57;;;;;;;14.65;3.55;;;8.30;99.90;;;;;;4729732;30;20154;-56
2023/12/10 02:25:31;;;;;;;14.93;3.60;;;8.30;99.90;;;;;;4712134;30;20139;-53
2023/12/10 02:28:00;;;;;;;16.40;3.80;;;8.30;99.90;;;;;;4723077;30;20088;-55
2023/12/10 02:30:27;;;;;;;20.98;3.75;;;8.30;99.90;;;;;;4710566;30;20049;-50
2023/12/10 02:32:55;;;;;;;18.35;3.75;;;8.30;99.90;;;;;;4704164;30;20057;-52
2023/12/10 02:35:22;;;;;;;18.95;4.03;;;8.30;99.90;;;;;;4728535;30;20071;-55
2023/12/10 02:37:50;;;;;;;25.92;4.53;;;8.30;99.90;;;;;;4729942;30;20044;-55
2023/12/10 02:40:17;;;;;;;20.90;3.67;;;8.30;99.90;;;;;;4728520;30;20060;-55
2023/12/10 02:42:45;;;;;;;17.98;3.63;;;8.30;99.90;;;;;;4728050;30;20139;-55
2023/12/10 02:45:13;;;;;;;18.90;4.03;;;8.20;99.90;;;;;;4684460;30;20104;-55
2023/12/10 02:47:41;;;;;;;21.27;5.00;;;8.20;99.90;;;;;;4729358;30;20056;-51
2023/12/10 02:50:09;;;;;;;21.77;3.97;;;8.20;99.90;;;;;;4711814;30;20048;-53
2023/12/10 02:52:37;;;;;;;20.42;4.45;;;8.20;99.90;;;;;;4728235;30;20554;-52
2023/12/10 02:55:10;;;;;;;24.27;4.47;;;8.20;99.90;;;;;;4731391;30;20438;-50
2023/12/10 02:57:37;;;;;;;16.25;4.25;;;8.20;99.90;;;;;;4730385;30;20076;-54
2023/12/10 03:00:07;;;;;;;20.02;4.25;;;8.10;99.90;;;;;;4727086;30;20064;-54
2023/12/10 03:02:35;;;;;;;21.10;4.07;;;8.10;99.90;;;;;;4726510;30;20471;-56
2023/12/10 03:05:03;;;;;;;21.63;4.45;;;8.20;99.90;;;;;;4729148;30;20080;-52
2023/12/10 03:07:30;;;;;;;26.08;5.70;;;8.20;99.90;;;;;;4728844;30;20055;-51
2023/12/10 03:09:57;;;;;;;21.58;4.68;;;8.10;99.90;;;;;;4726704;30;20052;-53
2023/12/10 03:12:24;;;;;;;22.20;4.72;;;8.10;99.90;;;;;;4727935;30;20080;-53
2023/12/10 03:14:51;;;;;;;27.73;5.55;;;8.00;99.90;;;;;;4729038;30;20044;-51
2023/12/10 03:17:19;;;;;;;17.77;4.20;;;8.00;99.90;;;;;;4725602;30;20052;-56
2023/12/10 03:19:46;;;;;;;25.80;4.85;;;8.00;99.90;;;;;;4729418;30;20075;-53
2023/12/10 03:22:13;;;;;;;28.85;4.35;;;8.00;99.90;;;;;;4728680;30;20155;-55
2023/12/10 03:24:40;;;;;;;30.10;5.40;;;8.00;99.90;;;;;;4717162;30;20060;-51
2023/12/10 03:27:07;;;;;;;16.42;5.05;;;8.00;99.90;;;;;;4727114;30;20136;-56
2023/12/10 03:29:34;;;;;;;23.25;4.68;;;8.00;99.90;;;;;;4720550;30;20069;-50
2023/12/10 03:32:02;;;;;;;22.73;5.53;;;7.90;99.90;;;;;;4726973;30;20041;-48
2023/12/10 03:34:29;;;;;;;18.98;4.93;;;8.00;99.90;;;;;;4728296;30;20056;-54
2023/12/10 03:36:56;;;;;;;28.75;5.50;;;7.90;99.90;;;;;;4729239;30;20051;-56
2023/12/10 03:39:23;;;;;;;34.10;8.10;;;7.90;99.90;;;;;;4708319;30;20120;-53
2023/12/10 03:41:50;;;;;;;31.15;5.20;;;7.90;99.90;;;;;;4715428;30;20182;-55
2023/12/10 03:44:17;;;;;;;21.73;5.03;;;8.00;99.90;;;;;;4722590;30;20060;-53
2023/12/10 03:46:44;;;;;;;32.05;4.85;;;8.00;99.90;;;;;;4714849;30;20104;-51
2023/12/10 03:49:12;;;;;;;22.48;4.68;;;8.00;99.90;;;;;;4726552;30;20045;-56
2023/12/10 03:51:39;;;;;;;26.85;5.50;;;8.20;99.90;;;;;;4727181;30;20178;-53
2023/12/10 03:54:06;;;;;;;26.45;5.55;;;8.20;99.90;;;;;;4723124;30;20061;-51
2023/12/10 03:56:33;;;;;;;19.88;4.75;;;8.20;99.90;;;;;;4730931;30;20116;-53
2023/12/10 03:59:00;;;;;;;29.13;4.78;;;8.20;99.90;;;;;;4727212;30;20060;-53
2023/12/10 04:01:27;;;;;;;31.10;4.88;;;8.20;99.90;;;;;;4725884;30;20311;-54
2023/12/10 04:03:55;;;;;;;22.63;4.97;;;8.20;99.90;;;;;;4726023;30;20515;-54
2023/12/10 04:06:22;;;;;;;29.55;4.78;;;8.20;99.90;;;;;;4731995;30;20510;-55
2023/12/10 04:08:49;;;;;;;33.55;5.95;;;8.10;99.90;;;;;;4727876;30;20056;-56
2023/12/10 04:11:23;;;;;;;28.33;5.60;;;8.10;99.90;;;;;;4711400;30;20554;-53
2023/12/10 04:13:50;;;;;;;20.40;5.03;;;8.10;99.90;;;;;;4729083;30;20049;-56
2023/12/10 04:16:29;;;;;;;26.73;5.85;;;8.00;99.90;;;;;;4716203;30;20055;-52
2023/12/10 04:18:56;;;;;;;32.17;6.22;;;8.00;99.90;;;;;;4729183;30;20048;-54
2023/12/10 04:21:24;;;;;;;25.80;5.28;;;8.00;99.90;;;;;;4725026;30;20088;-55
2023/12/10 04:23:51;;;;;;;27.58;5.22;;;8.00;99.90;;;;;;4723849;30;20066;-54
2023/12/10 04:26:18;;;;;;;31.00;5.57;;;8.00;99.90;;;;;;4710246;30;20053;-55
2023/12/10 04:28:46;;;;;;;32.75;5.72;;;8.00;99.90;;;;;;4726450;30;20060;-50
2023/12/10 04:31:13;;;;;;;33.13;5.55;;;8.00;99.90;;;;;;4729954;30;20048;-52
2023/12/10 04:33:43;;;;;;;21.25;5.07;;;8.00;99.90;;;;;;4724769;30;20508;-52
2023/12/10 04:36:11;;;;;;;25.13;5.13;;;8.00;99.90;;;;;;4726750;30;20522;-52
2023/12/10 04:38:39;;;;;;;23.00;4.45;;;8.10;99.90;;;;;;4720358;30;20055;-54
2023/12/10 04:41:06;;;;;;;26.67;5.43;;;8.20;99.90;;;;;;4725029;30;20057;-53
2023/12/10 04:43:33;;;;;;;30.10;4.43;;;8.20;99.90;;;;;;4721746;30;20503;-56
2023/12/10 04:46:00;;;;;;;24.58;5.07;;;8.10;99.90;;;;;;4720201;30;20057;-52
2023/12/10 04:48:27;;;;;;;28.15;4.57;;;8.20;99.90;;;;;;4732123;30;20431;-56
2023/12/10 04:50:54;;;;;;;24.35;4.88;;;8.20;99.90;;;;;;4715810;30;20053;-58
2023/12/10 04:53:21;;;;;;;26.98;4.68;;;8.20;99.90;;;;;;4730368;30;20048;-54
2023/12/10 04:55:48;;;;;;;20.40;5.03;;;8.20;99.90;;;;;;4730889;30;20081;-50
2023/12/10 04:58:16;;;;;;;23.77;4.18;;;8.10;99.90;;;;;;4732280;30;20057;-55
2023/12/10 05:00:43;;;;;;;24.02;4.53;;;8.10;99.90;;;;;;4714188;30;20130;-53
2023/12/10 05:03:11;;;;;;;22.80;3.65;;;8.00;99.90;;;;;;4729929;30;20056;-57
2023/12/10 05:05:38;;;;;;;17.88;3.60;;;8.00;99.90;;;;;;4716224;30;20435;-54
2023/12/10 05:08:06;;;;;;;19.00;3.70;;;8.00;99.90;;;;;;4706491;30;20056;-54
2023/12/10 05:10:33;;;;;;;16.92;3.75;;;8.00;99.90;;;;;;4728994;30;20135;-51
2023/12/10 05:13:00;;;;;;;16.77;3.72;;;8.00;99.90;;;;;;4714680;30;20049;-53
2023/12/10 05:15:28;;;;;;;13.57;3.25;;;7.90;99.90;;;;;;4731459;30;20048;-57
2023/12/10 05:17:55;;;;;;;16.38;3.40;;;7.80;99.90;;;;;;4728897;30;20055;-52
2023/12/10 05:20:22;;;;;;;17.08;3.50;;;7.80;99.90;;;;;;4729707;30;20071;-51
2023/12/10 05:22:49;;;;;;;14.80;2.90;;;7.80;99.90;;;;;;4725999;30;20060;-55
2023/12/10 05:25:17;;;;;;;14.43;3.10;;;7.70;99.90;;;;;;4730452;30;20059;-54
2023/12/10 05:27:44;;;;;;;11.50;2.60;;;7.60;99.90;;;;;;4730673;30;20131;-54
2023/12/10 05:30:11;;;;;;;14.73;2.95;;;7.60;99.90;;;;;;4713116;30;20116;-55
2023/12/10 05:32:39;;;;;;;21.27;3.60;;;7.50;99.90;;;;;;4729788;30;20055;-56
2023/12/10 05:35:06;;;;;;;12.85;2.78;;;7.40;99.90;;;;;;4714315;30;20147;-57
2023/12/10 05:37:33;;;;;;;10.50;2.88;;;7.30;99.90;;;;;;4697223;30;20049;-56
2023/12/10 05:40:00;;;;;;;14.68;3.03;;;7.30;99.90;;;;;;4708485;30;20084;-53
2023/12/10 05:42:27;;;;;;;16.95;3.80;;;7.20;99.90;;;;;;4711286;30;20079;-55
2023/12/10 05:44:56;;;;;;;10.02;2.90;;;7.20;99.90;;;;;;4729360;30;20053;-59
2023/12/10 05:47:23;;;;;;;20.38;3.25;;;7.10;99.90;;;;;;4729223;30;20084;-56
2023/12/10 05:49:50;;;;;;;10.40;2.95;;;7.10;99.90;;;;;;4710262;30;20044;-53
2023/12/10 05:52:17;;;;;;;12.52;3.20;;;7.10;99.90;;;;;;4710529;30;20049;-50
2023/12/10 05:54:44;;;;;;;13.90;2.58;;;7.00;99.90;;;;;;4729885;30;20057;-55
2023/12/10 05:57:11;;;;;;;12.18;3.10;;;7.00;99.90;;;;;;4720151;30;20044;-51
2023/12/10 05:59:38;;;;;;;17.48;3.13;;;7.00;99.90;;;;;;4729896;30;20055;-52
2023/12/10 06:02:05;;;;;;;13.68;3.03;;;7.00;99.90;;;;;;4731252;30;20522;-54
2023/12/10 06:04:33;;;;;;;14.88;3.22;;;6.90;99.90;;;;;;4727058;30;20056;-55
2023/12/10 06:07:00;;;;;;;13.48;3.17;;;6.90;99.90;;;;;;4730733;30;20083;-53
2023/12/10 06:09:27;;;;;;;22.08;3.47;;;7.00;99.90;;;;;;4726976;30;20091;-55
2023/12/10 06:11:55;;;;;;;12.43;3.05;;;6.90;99.90;;;;;;4728715;30;20063;-52
2023/12/10 06:14:22;;;;;;;13.15;2.72;;;6.90;99.90;;;;;;4727432;30;20041;-56
2023/12/10 06:16:49;;;;;;;13.85;3.05;;;6.90;99.90;;;;;;4731490;30;20577;-54
2023/12/10 06:19:16;;;;;;;9.43;2.50;;;6.90;99.90;;;;;;4727373;30;20061;-54
2023/12/10 06:21:43;;;;;;;9.18;2.35;;;7.00;99.90;;;;;;4726928;30;20076;-56
2023/12/10 06:24:10;;;;;;;12.23;2.88;;;6.90;99.90;;;;;;4730710;30;20057;-52
2023/12/10 06:26:38;;;;;;;12.25;3.17;;;6.90;99.90;;;;;;4717985;30;20045;-54
2023/12/10 06:29:05;;;;;;;10.77;2.20;;;6.80;99.90;;;;;;4727435;30;20151;-52
2023/12/10 06:31:32;;;;;;;10.65;2.47;;;6.90;99.90;;;;;;4727807;30;20419;-56
2023/12/10 06:33:59;;;;;;;16.83;4.00;;;6.80;99.90;;;;;;4695623;30;20427;-55
2023/12/10 06:36:26;;;;;;;15.95;2.92;;;6.80;99.90;;;;;;4727987;30;20123;-55
2023/12/10 06:38:54;;;;;;;7.80;2.45;;;6.80;99.90;;;;;;4730366;30;20052;-55
2023/12/10 06:41:21;;;;;;;15.93;3.63;;;6.80;99.90;;;;;;4711868;30;20063;-49
2023/12/10 06:43:48;;;;;;;18.77;2.58;;;6.80;99.90;;;;;;4728363;30;20139;-57
2023/12/10 06:46:17;;;;;;;13.93;2.92;;;6.70;99.90;;;;;;4729358;30;20135;-57
2023/12/10 06:48:44;;;;;;;13.48;2.70;;;6.70;99.90;;;;;;4727358;30;20159;-56
2023/12/10 06:51:12;;;;;;;14.88;2.42;;;6.70;99.90;;;;;;4729336;30;20082;-54
2023/12/10 06:53:42;;;;;;;11.68;2.60;;;6.70;99.90;;;;;;4714923;30;20048;-57
2023/12/10 06:56:09;;;;;;;14.45;2.88;;;6.70;99.90;;;;;;4721192;30;20064;-52
2023/12/10 06:58:36;;;;;;;15.90;3.50;;;6.70;99.90;;;;;;4716746;30;20288;-54
2023/12/10 07:01:04;;;;;;;19.52;3.15;;;6.70;99.90;;;;;;4727259;30;20068;-51
2023/12/10 07:03:31;;;;;;;16.48;4.30;;;6.70;99.90;;;;;;4730531;30;20056;-53
2023/12/10 07:06:03;;;;;;;14.65;2.78;;;6.70;99.90;;;;;;4732132;30;20531;-56
2023/12/10 07:08:31;;;;;;;12.43;3.00;;;6.80;99.90;;;;;;4729282;30;20052;-52
2023/12/10 07:10:58;;;;;;;11.95;2.75;;;6.80;99.90;;;;;;4729194;30;20318;-54
2023/12/10 07:13:25;;;;;;;13.15;2.60;;;6.80;99.90;;;;;;4710460;30;20056;-57
2023/12/10 07:15:52;;;;;;;15.02;2.95;;;6.80;99.90;;;;;;4728986;30;20484;-58
2023/12/10 07:18:19;;;;;;;19.70;3.08;;;6.90;99.90;;;;;;4728469;30;20072;-56
2023/12/10 07:20:47;;;;;;;16.38;3.42;;;6.90;99.90;;;;;;4715336;30;20164;-54
2023/12/10 07:23:14;;;;;;;16.98;3.72;;;6.90;99.90;;;;;;4728677;30;20117;-54
2023/12/10 07:25:42;;;;;;;19.40;3.30;;;7.00;99.90;;;;;;4718113;30;20155;-58
2023/12/10 07:28:09;;;;;;;14.57;3.05;;;7.00;99.90;;;;;;4710352;30;20067;-52
2023/12/10 07:30:36;;;;;;;19.95;3.40;;;7.00;99.90;;;;;;4707595;30;20551;-55
2023/12/10 07:33:04;;;;;;;15.13;3.22;;;7.00;99.90;;;;;;4711578;30;20435;-49
2023/12/10 07:35:31;;;;;;;22.38;3.53;;;7.10;99.90;;;;;;4726414;30;20048;-56
2023/12/10 07:37:59;;;;;;;19.98;3.50;;;7.10;99.90;;;;;;4713170;30;20092;-55
2023/12/10 07:40:26;;;;;;;15.45;3.78;;;7.20;99.90;;;;;;4729172;30;20133;-57
2023/12/10 07:42:53;;;;;;;12.48;3.15;;;7.20;99.90;;;;;;4726366;30;20059;-57
2023/12/10 07:45:20;;;;;;;20.33;4.20;;;7.20;99.90;;;;;;4727539;30;20139;-53
2023/12/10 07:47:47;;;;;;;15.77;3.50;;;7.30;99.90;;;;;;4723307;30;20048;-56
2023/12/10 07:50:15;;;;;;;21.02;3.67;;;7.40;99.90;;;;;;4724685;30;20127;-56
2023/12/10 07:52:42;;;;;;;21.42;4.07;;;7.40;99.90;;;;;;4727510;30;20045;-52
2023/12/10 07:55:09;;;;;;;15.45;3.53;;;7.50;99.90;;;;;;4709450;30;20106;-56
2023/12/10 07:57:36;;;;;;;19.77;3.67;;;7.60;99.90;;;;;;4731439;30;20045;-53
2023/12/10 08:00:05;;;;;;;21.10;3.90;;;7.70;99.90;;;;;;4708277;30;20048;-49
2023/12/10 08:02:38;;;;;;;22.25;4.00;;;7.80;99.90;;;;;;4704894;30;20071;-53
2023/12/10 08:05:05;;;;;;;17.38;3.97;;;7.90;99.90;;;;;;4728669;30;20064;-47
2023/12/10 08:07:32;;;;;;;17.50;3.78;;;7.90;99.90;;;;;;4725850;30;20045;-53
2023/12/10 08:09:59;;;;;;;21.15;4.45;;;8.00;99.90;;;;;;4711497;30;20126;-53
2023/12/10 08:12:27;;;;;;;16.13;3.47;;;8.00;99.90;;;;;;4724106;30;20061;-50
2023/12/10 08:14:55;;;;;;;16.80;3.65;;;8.10;99.90;;;;;;4730640;30;20053;-54
2023/12/10 08:17:22;;;;;;;24.63;4.15;;;8.10;99.90;;;;;;4729127;30;20053;-55
2023/12/10 08:19:49;;;;;;;19.13;4.13;;;8.10;99.90;;;;;;4730907;30;20336;-56
2023/12/10 08:22:16;;;;;;;17.00;3.97;;;8.10;99.90;;;;;;4728083;30;20432;-56
2023/12/10 08:24:43;;;;;;;17.17;3.50;;;8.10;99.90;;;;;;4730669;30;20049;-57
2023/12/10 08:27:10;;;;;;;16.38;3.90;;;8.20;99.90;;;;;;4728871;30;20139;-59
2023/12/10 08:29:38;;;;;;;16.95;3.50;;;8.20;99.90;;;;;;4730158;30;20059;-56
2023/12/10 08:32:05;;;;;;;14.98;3.33;;;8.20;99.90;;;;;;4726640;30;20052;-57
2023/12/10 08:34:32;;;;;;;16.85;3.33;;;8.10;99.90;;;;;;4716373;30;20130;-51
2023/12/10 08:37:00;;;;;;;19.60;3.95;;;8.20;99.90;;;;;;4730401;30;20064;-54
2023/12/10 08:39:28;;;;;;;25.70;3.33;;;8.20;99.90;;;;;;4715261;30;20048;-56
2023/12/10 08:41:55;;;;;;;15.73;4.10;;;8.20;99.90;;;;;;4730827;30;20064;-53
2023/12/10 08:44:23;;;;;;;18.25;3.80;;;8.20;99.90;;;;;;4730766;30;20080;-53
2023/12/10 08:46:51;;;;;;;16.67;3.25;;;8.30;99.90;;;;;;4730462;30;20460;-58
2023/12/10 08:49:18;;;;;;;19.33;4.28;;;8.20;99.90;;;;;;4714155;30;20063;-52
2023/12/10 08:51:45;;;;;;;20.40;4.15;;;8.30;99.90;;;;;;4728298;30;20052;-52
2023/12/10 08:54:12;;;;;;;17.33;4.15;;;8.30;99.90;;;;;;4726793;30;20229;-55
2023/12/10 08:56:39;;;;;;;17.75;3.55;;;8.30;99.90;;;;;;4715969;30;20057;-55
2023/12/10 08:59:07;;;;;;;18.73;3.45;;;8.40;99.90;;;;;;4726542;30;20053;-52
2023/12/10 09:01:35;;;;;;;15.65;4.15;;;8.40;99.90;;;;;;4725133;30;20057;-53
2023/12/10 09:04:05;;;;;;;19.27;3.88;;;8.40;99.90;;;;;;4729278;30;20056;-50
2023/12/10 09:06:32;;;;;;;18.48;3.50;;;8.50;99.90;;;;;;4732797;30;20056;-50
2023/12/10 09:09:00;;;;;;;21.45;3.45;;;8.50;99.90;;;;;;4727702;30;20306;-53
2023/12/10 09:11:27;;;;;;;17.92;4.20;;;8.50;99.90;;;;;;4731474;30;20125;-56
2023/12/10 09:13:54;;;;;;;14.82;3.72;;;8.60;99.90;;;;;;4727899;30;20055;-50
2023/12/10 09:16:22;;;;;;;15.18;3.88;;;8.60;99.90;;;;;;4728633;30;20067;-50
2023/12/10 09:18:49;;;;;;;17.65;3.38;;;8.70;99.90;;;;;;4711327;30;20056;-56
2023/12/10 09:21:17;;;;;;;16.92;3.60;;;8.70;99.90;;;;;;4728602;30;20057;-59
2023/12/10 09:23:44;;;;;;;15.75;4.18;;;8.80;99.90;;;;;;4728632;30;20542;-54
2023/12/10 09:26:11;;;;;;;16.70;3.95;;;9.00;99.90;;;;;;4727040;30;20120;-55
2023/12/10 09:28:38;;;;;;;18.92;3.67;;;9.00;99.90;;;;;;4727779;30;20076;-50
2023/12/10 09:31:05;;;;;;;13.85;3.42;;;9.00;99.90;;;;;;4728645;30;20061;-60
2023/12/10 09:33:33;;;;;;;12.27;3.47;;;9.00;99.90;;;;;;4728168;30;20060;-58
2023/12/10 09:36:00;;;;;;;17.90;3.85;;;9.10;99.90;;;;;;4728592;30;20053;-55
2023/12/10 09:38:27;;;;;;;15.30;3.80;;;9.20;99.90;;;;;;4711830;30;20163;-53
2023/12/10 09:40:55;;;;;;;20.50;3.90;;;9.20;99.90;;;;;;4722738;30;20153;-57
2023/12/10 09:43:22;;;;;;;18.88;4.45;;;9.30;99.90;;;;;;4723910;30;20156;-53
2023/12/10 09:45:49;;;;;;;15.02;3.00;;;9.30;99.90;;;;;;4726742;30;20053;-57
2023/12/10 09:48:17;;;;;;;15.38;3.83;;;9.40;99.90;;;;;;4726607;30;20189;-54
2023/12/10 09:50:45;;;;;;;19.40;3.53;;;9.40;99.90;;;;;;4729439;30;20056;-57
2023/12/10 09:53:13;;;;;;;10.65;3.05;;;9.50;99.90;;;;;;4730177;30;20548;-56
2023/12/10 09:55:41;;;;;;;12.20;3.10;;;9.60;99.90;;;;;;4730701;30;20075;-55
2023/12/10 09:58:08;;;;;;;19.65;4.20;;;9.60;99.90;;;;;;4728904;30;21328;-52
2023/12/10 10:00:35;;;;;;;21.42;4.40;;;9.50;99.90;;;;;;4725093;30;20485;-56
2023/12/10 10:03:04;;;;;;;15.77;3.78;;;9.40;99.90;;;;;;4729485;30;20139;-56
2023/12/10 10:05:33;;;;;;;12.43;4.05;;;9.40;99.90;;;;;;4730831;30;20451;-51
2023/12/10 10:08:00;;;;;;;13.85;3.58;;;9.50;99.90;;;;;;4719628;30;20066;-56
2023/12/10 10:10:27;;;;;;;15.18;3.70;;;9.60;99.90;;;;;;4724510;30;20550;-55
2023/12/10 10:12:55;;;;;;;15.45;4.60;;;9.80;99.90;;;;;;4727304;30;20081;-54
2023/12/10 10:15:30;;;;;;;17.70;3.85;;;9.80;99.90;;;;;;4730039;30;20073;-53
2023/12/10 10:17:58;;;;;;;16.42;3.35;;;9.80;99.90;;;;;;4729527;30;20242;-52
2023/12/10 10:20:26;;;;;;;15.10;3.63;;;9.70;99.90;;;;;;4729314;30;20442;-57
2023/12/10 10:22:56;;;;;;;13.32;3.70;;;9.90;99.90;;;;;;4728496;30;20052;-50
2023/12/10 10:25:24;;;;;;;15.02;4.10;;;10.00;99.90;;;;;;4729692;30;20135;-51
2023/12/10 10:27:52;;;;;;;15.38;3.42;;;9.80;99.90;;;;;;4713266;30;20144;-49
2023/12/10 10:30:19;;;;;;;19.00;4.47;;;9.90;99.90;;;;;;4711736;30;20116;-54
2023/12/10 10:32:48;;;;;;;14.88;3.47;;;9.90;99.90;;;;;;4725062;30;20060;-56
2023/12/10 10:35:15;;;;;;;17.80;3.63;;;10.00;99.90;;;;;;4729674;30;20095;-56
2023/12/10 10:37:42;;;;;;;19.27;4.00;;;9.90;99.90;;;;;;4710952;30;20072;-53
2023/12/10 10:40:10;;;;;;;12.35;3.47;;;9.90;99.90;;;;;;4713120;30;20136;-51
2023/12/10 10:42:37;;;;;;;15.10;3.47;;;10.30;99.90;;;;;;4714284;30;20063;-56
2023/12/10 10:45:06;;;;;;;13.50;3.58;;;10.30;99.90;;;;;;4712639;30;20087;-55
2023/12/10 10:47:34;;;;;;;11.18;3.05;;;10.20;99.90;;;;;;4729527;30;20071;-55
2023/12/10 10:50:04;;;;;;;13.73;3.58;;;10.10;99.90;;;;;;4721500;30;20103;-57
2023/12/10 10:52:52;;;;;;;18.75;3.45;;;10.10;99.90;;;;;;4726439;30;20071;-56
2023/12/10 10:55:20;;;;;;;15.68;3.65;;;10.20;99.90;;;;;;4710608;30;20061;-54
2023/12/10 10:57:47;;;;;;;15.05;3.95;;;10.30;99.90;;;;;;4699534;30;20484;-51
2023/12/10 11:00:17;;;;;;;12.82;4.10;;;10.30;99.90;;;;;;4728454;30;20463;-50
2023/12/10 11:02:46;;;;;;;14.75;3.55;;;10.30;99.90;;;;;;4711129;30;20045;-57
2023/12/10 11:05:20;;;;;;;11.85;3.42;;;10.40;99.90;;;;;;4731507;30;20052;-52
2023/12/10 11:07:49;;;;;;;16.75;3.40;;;10.40;99.90;;;;;;4730512;30;20053;-57
2023/12/10 11:10:17;;;;;;;14.25;2.90;;;10.50;99.90;;;;;;4711061;30;20060;-53
2023/12/10 11:12:48;;;;;;;20.27;4.20;;;10.90;99.90;;;;;;4727900;30;20060;-51
2023/12/10 11:15:16;;;;;;;14.93;4.57;;;10.80;99.90;;;;;;4728461;30;20103;-56
2023/12/10 11:17:51;;;;;;;16.45;3.78;;;10.90;99.90;;;;;;4731062;30;20044;-54
2023/12/10 11:20:35;;;;;;;11.52;3.47;;;11.00;99.90;;;;;;4729022;30;20120;-57
2023/12/10 11:23:11;;;;;;;10.98;3.22;;;11.40;99.90;;;;;;4727744;30;20044;-59
2023/12/10 11:25:40;;;;;;;16.02;3.80;;;11.60;99.90;;;;;;4735527;30;20540;-56
2023/12/10 11:28:15;;;;;;;16.33;4.07;;;11.50;99.90;;;;;;4669524;30;20103;-58
2023/12/10 11:30:43;;;;;;;14.98;3.90;;;11.40;99.90;;;;;;4731955;30;20068;-57
2023/12/10 11:33:13;;;;;;;12.48;3.97;;;11.30;99.90;;;;;;4728570;30;20059;-55
2023/12/10 11:35:41;;;;;;;17.23;3.72;;;11.40;99.90;;;;;;4712246;30;20048;-55
2023/12/10 11:38:09;;;;;;;10.35;3.58;;;11.20;99.90;;;;;;4727019;30;20059;-50
2023/12/10 11:40:37;;;;;;;23.38;4.10;;;11.60;99.90;;;;;;4687258;30;20098;-54
2023/12/10 11:43:08;;;;;;;12.77;3.60;;;11.90;99.90;;;;;;4726978;30;20533;-50
2023/12/10 11:45:36;;;;;;;16.50;4.13;;;12.00;99.90;;;;;;4727826;30;20057;-56
2023/12/10 11:48:04;;;;;;;11.88;4.13;;;11.70;99.90;;;;;;4727078;30;20446;-50
2023/12/10 11:50:34;;;;;;;14.65;3.85;;;11.60;99.90;;;;;;4727354;30;20056;-55
2023/12/10 11:53:01;;;;;;;9.65;3.38;;;11.70;99.90;;;;;;4712384;30;20401;-53
2023/12/10 11:55:30;;;;;;;14.88;3.53;;;11.50;99.90;;;;;;4727187;30;20085;-55
2023/12/10 11:57:58;;;;;;;14.15;4.05;;;11.80;99.90;;;;;;4727141;30;20396;-54
2023/12/10 12:00:25;;;;;;;16.27;4.07;;;12.00;99.90;;;;;;4729299;30;20427;-59
2023/12/10 12:02:53;;;;;;;13.52;3.38;;;12.40;99.90;;;;;;4712455;30;20061;-53
2023/12/10 12:05:20;;;;;;;10.73;3.33;;;12.60;99.90;;;;;;4728139;30;20105;-56
2023/12/10 12:07:48;;;;;;;12.10;3.60;;;12.40;99.90;;;;;;4711598;30;20404;-55
2023/12/10 12:10:17;;;;;;;11.57;4.13;;;12.50;99.90;;;;;;4726464;30;20144;-53
2023/12/10 12:12:46;;;;;;;12.40;4.07;;;12.30;99.90;;;;;;4710282;30;20136;-55
2023/12/10 12:15:15;;;;;;;9.55;3.58;;;12.40;99.90;;;;;;4728461;30;20056;-51
2023/12/10 12:17:43;;;;;;;14.63;3.35;;;12.50;99.90;;;;;;4712355;30;20114;-54
2023/12/10 12:20:26;;;;;;;11.98;4.28;;;12.50;99.90;;;;;;4726417;30;20080;-56
2023/12/10 12:22:53;;;;;;;12.25;3.72;;;12.70;99.90;;;;;;4727548;30;20139;-56
2023/12/10 12:25:21;;;;;;;11.25;3.97;;;12.70;99.90;;;;;;4728859;30;20082;-53
2023/12/10 12:27:48;;;;;;;11.60;3.80;;;12.80;99.90;;;;;;4700203;30;20163;-57
2023/12/10 12:30:17;;;;;;;14.73;3.85;;;12.70;99.90;;;;;;4730743;30;20088;-53
2023/12/10 12:32:45;;;;;;;12.10;3.65;;;12.20;99.90;;;;;;4728135;30;20041;-58
2023/12/10 12:35:12;;;;;;;18.27;4.35;;;11.60;99.90;;;;;;4727571;30;20061;-55
2023/12/10 12:37:40;;;;;;;13.23;3.80;;;11.40;99.90;;;;;;4726840;30;20075;-57
2023/12/10 12:40:08;;;;;;;11.93;3.67;;;10.80;99.90;;;;;;4726923;30;20060;-54
2023/12/10 12:42:35;;;;;;;12.13;3.40;;;10.60;99.90;;;;;;4725807;30;20045;-51
2023/12/10 12:45:03;;;;;;;16.40;3.90;;;10.60;99.90;;;;;;4726690;30;20128;-53
2023/12/10 12:47:30;;;;;;;12.63;3.30;;;10.60;99.90;;;;;;4718641;30;20069;-56
2023/12/10 12:49:58;;;;;;;12.70;3.88;;;10.80;99.90;;;;;;4708440;30;20901;-49